Time;durP1;ratioP1;P1;durP2;ratioP2;P2;SDS_P1;SDS_P2;PMS_P1;PMS_P2;Temp;Humidity;BMP_temperature;BMP_pressure;BME280_temperature;BME280_humidity;BME280_pressure;Samples;Min_cycle;Max_cycle;Signal;HPM_P1;HPM_P2
2021/05/30 00:01:30;;;;;;;17.47;15.60;;;12.60;99.90;;;;;;5055848;28;20495;-73
2021/05/30 00:03:55;;;;;;;17.43;15.60;;;12.50;99.90;;;;;;5055984;28;20213;-72
2021/05/30 00:06:21;;;;;;;18.87;16.97;;;12.50;99.90;;;;;;5053679;28;20424;-73
2021/05/30 00:08:47;;;;;;;17.40;15.23;;;12.50;99.90;;;;;;5056387;28;20312;-72
2021/05/30 00:11:12;;;;;;;17.20;15.30;;;12.50;99.90;;;;;;5056222;28;20165;-72
2021/05/30 00:13:39;;;;;;;18.73;14.70;;;12.50;99.90;;;;;;5055993;28;20180;-72
2021/05/30 00:16:05;;;;;;;19.47;15.43;;;12.40;99.90;;;;;;5054374;28;20680;-72
2021/05/30 00:18:30;;;;;;;18.67;14.60;;;12.40;99.90;;;;;;5052715;28;20442;-72
2021/05/30 00:20:56;;;;;;;18.27;15.60;;;12.40;99.90;;;;;;5053137;28;20443;-72
2021/05/30 00:23:21;;;;;;;17.47;15.50;;;12.40;99.90;;;;;;5053213;28;20201;-72
2021/05/30 00:25:47;;;;;;;18.83;16.70;;;12.30;99.90;;;;;;5052921;28;20225;-72
2021/05/30 00:28:12;;;;;;;18.00;15.77;;;12.20;99.90;;;;;;5052826;28;20174;-72
2021/05/30 00:30:38;;;;;;;17.13;15.30;;;12.20;99.90;;;;;;5053126;28;20639;-72
2021/05/30 00:33:04;;;;;;;21.40;15.50;;;12.20;99.90;;;;;;5055766;28;20182;-72
2021/05/30 00:35:29;;;;;;;17.07;14.63;;;12.30;99.90;;;;;;5056824;28;20186;-72
2021/05/30 00:37:55;;;;;;;17.30;15.43;;;12.30;99.90;;;;;;5057434;28;20448;-72
2021/05/30 00:40:22;;;;;;;16.73;15.00;;;12.20;99.90;;;;;;5060670;28;20166;-72
2021/05/30 00:42:48;;;;;;;17.13;15.33;;;12.20;99.90;;;;;;5060083;28;20185;-73
2021/05/30 00:45:14;;;;;;;21.10;16.07;;;12.30;99.90;;;;;;5059283;28;20972;-73
2021/05/30 00:47:40;;;;;;;22.10;16.63;;;12.30;99.90;;;;;;5060326;28;20417;-73
2021/05/30 00:50:07;;;;;;;19.87;15.73;;;12.30;99.90;;;;;;5057701;28;20404;-72
2021/05/30 00:52:33;;;;;;;19.70;15.73;;;12.30;99.90;;;;;;5056555;28;20409;-72
2021/05/30 00:55:01;;;;;;;18.50;16.43;;;12.30;99.90;;;;;;5057055;28;20843;-72
2021/05/30 00:57:27;;;;;;;18.83;16.83;;;12.30;99.90;;;;;;5056373;28;20491;-72
2021/05/30 00:59:52;;;;;;;17.40;15.53;;;12.30;99.90;;;;;;5056383;28;20515;-72
2021/05/30 01:02:18;;;;;;;18.33;15.90;;;12.20;99.90;;;;;;5056397;28;20238;-72
2021/05/30 01:04:47;;;;;;;18.37;16.47;;;12.20;99.90;;;;;;5054839;28;20277;-72
2021/05/30 01:07:15;;;;;;;17.63;15.67;;;12.20;99.90;;;;;;5056187;28;20225;-72
2021/05/30 01:09:41;;;;;;;18.63;16.23;;;12.20;99.90;;;;;;5055985;28;20939;-72
2021/05/30 01:12:08;;;;;;;18.93;16.50;;;12.20;99.90;;;;;;5056428;28;20417;-72
2021/05/30 01:14:35;;;;;;;17.70;15.67;;;12.20;99.90;;;;;;5055894;28;20191;-72
2021/05/30 01:17:01;;;;;;;18.30;15.90;;;12.10;99.90;;;;;;5055906;28;20421;-72
2021/05/30 01:19:29;;;;;;;19.17;16.37;;;12.00;99.90;;;;;;5056123;28;20503;-72
2021/05/30 01:21:58;;;;;;;20.10;16.20;;;11.90;99.90;;;;;;5056369;28;20470;-72
2021/05/30 01:24:24;;;;;;;17.53;15.70;;;11.90;99.90;;;;;;5055538;28;20812;-72
2021/05/30 01:26:50;;;;;;;20.37;17.37;;;11.90;99.90;;;;;;5056073;28;20417;-72
2021/05/30 01:29:16;;;;;;;19.23;17.13;;;11.90;99.90;;;;;;5056308;28;20177;-72
2021/05/30 01:31:41;;;;;;;18.23;16.23;;;11.90;99.90;;;;;;5056278;28;20420;-73
2021/05/30 01:34:07;;;;;;;21.70;17.37;;;11.90;99.90;;;;;;5055992;28;20651;-72
2021/05/30 01:36:32;;;;;;;19.17;15.90;;;11.90;99.90;;;;;;5056242;28;20213;-73
2021/05/30 01:38:58;;;;;;;22.70;17.77;;;11.70;99.90;;;;;;5055727;28;20174;-73
2021/05/30 01:41:24;;;;;;;22.37;18.47;;;11.60;99.90;;;;;;5055788;28;20196;-73
2021/05/30 01:43:50;;;;;;;21.83;17.73;;;11.40;99.90;;;;;;5054826;28;20655;-73
2021/05/30 01:46:15;;;;;;;20.53;17.27;;;11.30;99.90;;;;;;5055707;28;20482;-73
2021/05/30 01:48:41;;;;;;;19.13;17.00;;;11.20;99.90;;;;;;5055420;28;20177;-73
2021/05/30 01:51:07;;;;;;;20.57;17.30;;;11.10;99.90;;;;;;5055162;28;20658;-72
2021/05/30 01:53:38;;;;;;;19.50;16.93;;;11.00;99.90;;;;;;5054995;28;20196;-71
2021/05/30 01:58:30;;;;;;;19.50;16.50;;;11.10;99.90;;;;;;5055340;28;20435;-71
2021/05/30 02:00:56;;;;;;;18.40;14.77;;;11.10;99.90;;;;;;5055324;28;20890;-71
2021/05/30 02:03:22;;;;;;;18.10;15.17;;;11.20;99.90;;;;;;5055301;28;20543;-71
2021/05/30 02:05:52;;;;;;;17.30;15.07;;;11.20;99.90;;;;;;5055918;28;20425;-71
2021/05/30 02:08:19;;;;;;;19.17;14.60;;;11.20;99.90;;;;;;5055678;28;20803;-72
2021/05/30 02:10:45;;;;;;;17.47;14.40;;;11.20;99.90;;;;;;5055032;28;20444;-72
2021/05/30 02:13:11;;;;;;;21.17;15.33;;;11.30;99.90;;;;;;5054973;28;20440;-71
2021/05/30 02:15:37;;;;;;;22.43;16.63;;;11.30;99.90;;;;;;5055414;28;20186;-71
2021/05/30 02:18:04;;;;;;;17.60;15.67;;;11.40;99.90;;;;;;5055276;28;20537;-72
2021/05/30 02:20:32;;;;;;;18.30;15.37;;;11.40;99.90;;;;;;5054933;28;20558;-71
2021/05/30 02:22:58;;;;;;;18.90;15.13;;;11.40;99.90;;;;;;5054920;28;20786;-72
2021/05/30 02:25:24;;;;;;;17.50;15.70;;;11.40;99.90;;;;;;5055298;28;20421;-72
2021/05/30 02:27:51;;;;;;;16.40;14.60;;;11.40;99.90;;;;;;5054891;28;20640;-72
2021/05/30 02:30:17;;;;;;;17.50;14.50;;;11.30;99.90;;;;;;5055413;28;20170;-72
2021/05/30 02:32:42;;;;;;;20.77;18.48;;;11.30;99.90;;;;;;5053509;28;20457;-72
2021/05/30 02:35:08;;;;;;;17.50;15.63;;;11.20;99.90;;;;;;5053072;28;20232;-72
2021/05/30 02:37:34;;;;;;;17.60;14.87;;;11.30;99.90;;;;;;5054596;28;20205;-72
2021/05/30 02:39:59;;;;;;;18.07;16.17;;;11.30;99.90;;;;;;5053403;28;20600;-72
2021/05/30 02:42:25;;;;;;;18.53;14.73;;;11.30;99.90;;;;;;5054543;28;20175;-73
2021/05/30 02:44:50;;;;;;;17.63;15.80;;;11.30;99.90;;;;;;5054376;28;20220;-72
2021/05/30 02:47:16;;;;;;;16.40;14.70;;;11.10;99.90;;;;;;5054744;28;20643;-72
2021/05/30 02:49:41;;;;;;;18.20;15.43;;;11.20;99.90;;;;;;5054754;28;20623;-71
2021/05/30 02:52:07;;;;;;;17.90;14.50;;;11.20;99.90;;;;;;5054509;28;20350;-71
2021/05/30 02:54:32;;;;;;;18.00;15.47;;;11.20;99.90;;;;;;5052979;28;20205;-71
2021/05/30 02:56:58;;;;;;;19.40;15.17;;;11.20;99.90;;;;;;5054027;28;20178;-71
2021/05/30 02:59:24;;;;;;;18.10;16.20;;;11.20;99.90;;;;;;5054128;28;20190;-71
2021/05/30 03:01:49;;;;;;;20.03;16.13;;;11.20;99.90;;;;;;5054557;28;20220;-71
2021/05/30 03:04:15;;;;;;;16.80;14.97;;;11.10;99.90;;;;;;5053901;28;20205;-72
2021/05/30 03:06:40;;;;;;;20.03;16.17;;;11.10;99.90;;;;;;5054130;28;20549;-72
2021/05/30 03:09:06;;;;;;;20.70;15.17;;;11.10;99.90;;;;;;5054663;28;20261;-71
2021/05/30 03:11:31;;;;;;;22.67;16.33;;;11.00;99.90;;;;;;5054499;28;20170;-71
2021/05/30 03:14:00;;;;;;;21.37;15.87;;;11.00;99.90;;;;;;5053957;28;20185;-71
2021/05/30 03:16:26;;;;;;;19.60;16.53;;;11.00;99.90;;;;;;5053689;28;20197;-71
2021/05/30 03:18:51;;;;;;;20.07;17.07;;;11.00;99.90;;;;;;5054293;28;20757;-71
2021/05/30 03:21:17;;;;;;;18.53;14.93;;;11.00;99.90;;;;;;5053716;28;20189;-71
2021/05/30 03:23:43;;;;;;;21.52;16.98;;;11.00;99.90;;;;;;5053866;28;20430;-71
2021/05/30 03:26:09;;;;;;;19.23;15.63;;;11.00;99.90;;;;;;5053319;28;20198;-71
2021/05/30 03:28:35;;;;;;;20.13;16.47;;;10.90;99.90;;;;;;5053859;28;20464;-71
2021/05/30 03:31:00;;;;;;;19.77;15.70;;;10.80;99.90;;;;;;5053780;28;20420;-72
2021/05/30 03:33:26;;;;;;;17.20;14.90;;;10.80;99.90;;;;;;5053509;28;20178;-72
2021/05/30 03:35:55;;;;;;;23.83;16.67;;;10.80;99.90;;;;;;5053609;28;20198;-73
2021/05/30 03:38:23;;;;;;;17.77;15.00;;;10.80;99.90;;;;;;5053842;28;20967;-72
2021/05/30 03:40:58;;;;;;;19.57;14.97;;;10.70;99.90;;;;;;5053942;28;20423;-72
2021/05/30 03:43:24;;;;;;;17.07;14.50;;;10.70;99.90;;;;;;5053672;28;20945;-72
2021/05/30 03:45:49;;;;;;;17.63;14.63;;;10.70;99.90;;;;;;5053176;28;20421;-72
2021/05/30 03:48:15;;;;;;;16.40;14.03;;;10.70;99.90;;;;;;5053821;28;20177;-72
2021/05/30 03:50:40;;;;;;;19.87;14.23;;;10.70;99.90;;;;;;5053519;28;20249;-71
2021/05/30 03:53:06;;;;;;;17.00;14.93;;;10.70;99.90;;;;;;5053502;28;20261;-72
2021/05/30 03:55:32;;;;;;;18.77;15.17;;;10.70;99.90;;;;;;5053522;28;20280;-72
2021/05/30 03:57:59;;;;;;;17.17;14.10;;;10.70;99.90;;;;;;5053255;28;20194;-73
2021/05/30 04:00:24;;;;;;;18.23;14.57;;;10.60;99.90;;;;;;5053032;28;20181;-72
2021/05/30 04:02:50;;;;;;;20.40;14.67;;;10.60;99.90;;;;;;5053518;28;20425;-72
2021/05/30 04:05:16;;;;;;;17.43;15.20;;;10.60;99.90;;;;;;5054208;28;20710;-72
2021/05/30 04:07:43;;;;;;;18.20;15.70;;;10.50;99.90;;;;;;5059775;28;20174;-72
2021/05/30 04:10:10;;;;;;;17.00;15.20;;;10.60;99.90;;;;;;5060388;28;20404;-72
2021/05/30 04:12:40;;;;;;;17.13;14.30;;;10.60;99.90;;;;;;5059612;28;20400;-72
2021/05/30 04:15:08;;;;;;;17.70;14.70;;;10.60;99.90;;;;;;5060060;28;20497;-72
2021/05/30 04:17:34;;;;;;;18.03;14.90;;;10.60;99.90;;;;;;5059664;28;20450;-74
2021/05/30 04:19:59;;;;;;;17.73;14.67;;;10.60;99.90;;;;;;5060308;28;20432;-73
2021/05/30 04:22:25;;;;;;;17.13;14.90;;;10.60;99.90;;;;;;5056425;28;20186;-74
2021/05/30 04:24:51;;;;;;;15.30;13.53;;;10.60;99.90;;;;;;5039706;28;20732;-72
2021/05/30 04:27:17;;;;;;;18.67;16.30;;;10.60;99.90;;;;;;5039670;28;20530;-71
2021/05/30 04:29:43;;;;;;;17.63;15.40;;;10.70;99.90;;;;;;5052596;28;20178;-73
2021/05/30 04:32:08;;;;;;;19.27;15.77;;;10.80;99.90;;;;;;5059314;28;20762;-72
2021/05/30 04:34:34;;;;;;;16.80;15.00;;;10.80;99.90;;;;;;5059735;28;20440;-72
2021/05/30 04:36:59;;;;;;;18.60;14.87;;;10.80;99.90;;;;;;5060084;28;20174;-73
2021/05/30 04:39:27;;;;;;;16.40;14.70;;;10.70;99.90;;;;;;5059109;28;20181;-71
2021/05/30 04:41:53;;;;;;;20.43;16.03;;;10.60;99.90;;;;;;5059581;28;20177;-72
2021/05/30 04:44:19;;;;;;;15.93;14.23;;;10.50;99.90;;;;;;5059281;28;20460;-73
2021/05/30 04:46:44;;;;;;;17.33;14.67;;;10.50;99.90;;;;;;5059980;28;20220;-72
2021/05/30 04:49:10;;;;;;;17.00;14.60;;;10.50;99.90;;;;;;5056821;28;20460;-72
2021/05/30 04:51:35;;;;;;;19.00;15.10;;;10.50;99.90;;;;;;5059179;28;20186;-72
2021/05/30 04:54:01;;;;;;;15.80;14.10;;;10.50;99.90;;;;;;5040443;28;20179;-71
2021/05/30 04:56:26;;;;;;;16.63;14.83;;;10.60;99.90;;;;;;5059993;28;20210;-72
2021/05/30 04:58:52;;;;;;;16.53;13.97;;;10.70;99.90;;;;;;5059168;28;20194;-72
2021/05/30 05:01:18;;;;;;;17.60;15.20;;;10.70;99.90;;;;;;5059479;28;20181;-71
2021/05/30 05:03:44;;;;;;;18.10;15.23;;;10.80;99.90;;;;;;5058957;28;20517;-72
2021/05/30 05:06:10;;;;;;;18.20;15.10;;;10.80;99.90;;;;;;5059780;28;20433;-73
2021/05/30 05:08:35;;;;;;;18.40;14.70;;;10.80;99.90;;;;;;5059610;28;20170;-73
2021/05/30 05:11:01;;;;;;;17.93;16.13;;;10.90;99.90;;;;;;5057768;28;20928;-72
2021/05/30 05:13:27;;;;;;;19.40;15.53;;;10.90;99.90;;;;;;5059079;28;20198;-73
2021/05/30 05:15:53;;;;;;;18.80;14.67;;;10.90;99.90;;;;;;5058259;28;20205;-73
2021/05/30 05:18:24;;;;;;;19.40;14.60;;;10.90;99.90;;;;;;5056682;28;20257;-72
2021/05/30 05:20:51;;;;;;;17.50;15.23;;;11.00;99.90;;;;;;5056318;28;20444;-71
2021/05/30 05:23:22;;;;;;;18.70;16.70;;;11.00;99.90;;;;;;5055984;28;20928;-71
2021/05/30 05:25:49;;;;;;;16.63;14.37;;;11.10;99.90;;;;;;5056390;28;20478;-71
2021/05/30 05:28:15;;;;;;;17.10;15.27;;;11.10;99.90;;;;;;5055992;28;20416;-72
2021/05/30 05:30:40;;;;;;;19.27;14.23;;;11.10;99.90;;;;;;5055978;28;20442;-71
2021/05/30 05:33:06;;;;;;;16.43;14.07;;;11.20;99.90;;;;;;5056120;28;20600;-71
2021/05/30 05:35:31;;;;;;;16.50;13.93;;;11.30;99.90;;;;;;5056071;28;20256;-72
2021/05/30 05:37:58;;;;;;;16.57;13.97;;;11.30;99.90;;;;;;5054607;28;20180;-71
2021/05/30 05:40:25;;;;;;;14.30;12.90;;;11.40;99.90;;;;;;5055407;28;20183;-71
2021/05/30 05:42:52;;;;;;;16.20;13.60;;;11.40;99.90;;;;;;5056502;28;20810;-71
2021/05/30 05:45:18;;;;;;;14.90;13.40;;;11.50;99.90;;;;;;5056332;28;20468;-72
2021/05/30 05:47:44;;;;;;;14.53;12.67;;;11.60;99.90;;;;;;5056195;28;20397;-71
2021/05/30 05:50:15;;;;;;;14.60;13.10;;;11.60;99.90;;;;;;5055266;28;20566;-72
2021/05/30 05:52:41;;;;;;;15.20;13.10;;;11.70;99.90;;;;;;5055520;28;20420;-71
2021/05/30 05:55:08;;;;;;;16.73;13.80;;;11.70;99.90;;;;;;5055768;28;20937;-72
2021/05/30 05:57:39;;;;;;;15.37;13.77;;;11.90;99.90;;;;;;5055729;28;20417;-72
2021/05/30 06:00:13;;;;;;;14.83;13.33;;;12.00;99.90;;;;;;5055574;28;20766;-72
2021/05/30 06:02:38;;;;;;;15.43;13.80;;;12.10;99.90;;;;;;5055288;28;20433;-72
2021/05/30 06:05:06;;;;;;;17.57;14.23;;;12.10;99.90;;;;;;5055111;28;20562;-72
2021/05/30 06:07:32;;;;;;;16.00;12.60;;;12.20;99.90;;;;;;5053985;28;20682;-72
2021/05/30 06:09:57;;;;;;;12.53;11.23;;;12.30;99.90;;;;;;5055332;28;20454;-72
2021/05/30 06:12:23;;;;;;;13.40;12.10;;;12.40;99.90;;;;;;5054964;28;20503;-73
2021/05/30 06:14:48;;;;;;;12.10;10.80;;;12.40;99.90;;;;;;5054865;28;20217;-71
2021/05/30 06:17:14;;;;;;;10.37;9.27;;;12.60;99.90;;;;;;5055370;28;20181;-73
2021/05/30 06:19:40;;;;;;;10.80;9.70;;;12.60;99.90;;;;;;5055072;28;20555;-73
2021/05/30 06:22:06;;;;;;;12.50;9.83;;;12.70;99.90;;;;;;5055199;28;20615;-72
2021/05/30 06:24:32;;;;;;;11.50;9.60;;;12.80;99.90;;;;;;5054524;28;20626;-72
2021/05/30 06:26:59;;;;;;;9.77;8.63;;;12.90;99.90;;;;;;5054104;28;20500;-72
2021/05/30 06:29:25;;;;;;;9.20;8.30;;;13.00;99.90;;;;;;5057644;28;20833;-73
2021/05/30 06:31:52;;;;;;;9.53;8.63;;;13.10;99.90;;;;;;5059303;28;20425;-73
2021/05/30 06:34:17;;;;;;;9.30;8.00;;;13.20;99.90;;;;;;5057936;28;20504;-73
2021/05/30 06:36:43;;;;;;;9.00;8.10;;;13.20;99.90;;;;;;5056155;28;20464;-73
2021/05/30 06:39:10;;;;;;;8.83;7.77;;;13.30;99.90;;;;;;5048524;28;20272;-73
2021/05/30 06:41:36;;;;;;;9.27;8.37;;;13.50;99.90;;;;;;5034744;28;20417;-73
2021/05/30 06:44:03;;;;;;;9.10;7.73;;;13.60;99.90;;;;;;5036447;28;20450;-73
2021/05/30 06:46:29;;;;;;;9.90;8.90;;;13.70;99.90;;;;;;5054725;28;20432;-72
2021/05/30 06:48:54;;;;;;;8.83;8.03;;;13.70;99.90;;;;;;5053269;28;20409;-71
2021/05/30 06:51:22;;;;;;;9.10;8.20;;;13.70;99.90;;;;;;5055139;28;20170;-71
2021/05/30 06:53:50;;;;;;;11.53;8.77;;;13.80;99.90;;;;;;5054390;28;20272;-71
2021/05/30 06:56:17;;;;;;;8.40;7.27;;;13.90;99.90;;;;;;5054338;28;20441;-71
2021/05/30 06:58:43;;;;;;;9.43;6.70;;;14.00;99.90;;;;;;5053804;28;20447;-72
2021/05/30 07:01:09;;;;;;;10.23;7.90;;;14.10;99.90;;;;;;5056331;28;20428;-71
2021/05/30 07:03:34;;;;;;;7.80;7.00;;;14.20;99.90;;;;;;5055066;28;20882;-72
2021/05/30 07:06:00;;;;;;;8.00;7.23;;;14.20;99.90;;;;;;5054743;28;20433;-72
2021/05/30 07:08:26;;;;;;;8.03;6.90;;;14.30;99.90;;;;;;5055365;28;20179;-71
2021/05/30 07:10:55;;;;;;;8.97;6.90;;;14.40;99.90;;;;;;5038039;28;20183;-71
2021/05/30 07:13:21;;;;;;;7.00;6.40;;;14.50;99.90;;;;;;5055194;28;20404;-71
2021/05/30 07:15:48;;;;;;;7.10;6.40;;;14.60;99.90;;;;;;5056680;28;20429;-71
2021/05/30 07:18:14;;;;;;;6.50;5.90;;;14.70;99.90;;;;;;5054889;28;20193;-71
2021/05/30 07:20:43;;;;;;;6.90;5.93;;;14.80;99.90;;;;;;5056081;28;20409;-71
2021/05/30 07:23:09;;;;;;;7.53;5.83;;;15.00;99.50;;;;;;5056547;28;20492;-72
2021/05/30 07:25:35;;;;;;;8.40;5.33;;;15.10;99.30;;;;;;5055788;28;20417;-72
2021/05/30 07:28:01;;;;;;;6.97;5.00;;;15.20;98.50;;;;;;5047601;28;20441;-72
2021/05/30 07:30:26;;;;;;;4.73;4.33;;;15.40;97.70;;;;;;5045028;28;20428;-72
2021/05/30 07:32:52;;;;;;;5.07;4.60;;;15.50;96.60;;;;;;5041729;28;20210;-73
2021/05/30 07:35:17;;;;;;;4.77;4.37;;;15.60;96.00;;;;;;5046046;28;20214;-72
2021/05/30 07:37:43;;;;;;;4.77;4.23;;;15.70;95.60;;;;;;5048389;28;20237;-73
2021/05/30 07:40:10;;;;;;;4.50;4.10;;;15.70;94.70;;;;;;5050709;28;20542;-72
2021/05/30 07:42:35;;;;;;;4.57;4.17;;;15.80;94.60;;;;;;5051882;28;20174;-72
2021/05/30 07:45:01;;;;;;;4.37;4.07;;;16.00;94.70;;;;;;5039173;28;20577;-72
2021/05/30 07:47:26;;;;;;;4.43;4.03;;;16.10;94.40;;;;;;5040310;28;20518;-72
2021/05/30 07:49:52;;;;;;;4.40;3.93;;;16.20;94.50;;;;;;5053422;28;20608;-73
2021/05/30 07:52:17;;;;;;;3.90;3.60;;;16.40;94.50;;;;;;5052131;28;20178;-73
2021/05/30 07:54:43;;;;;;;3.03;2.77;;;16.50;93.10;;;;;;5047446;28;20214;-72
2021/05/30 07:57:09;;;;;;;4.73;3.83;;;16.60;91.90;;;;;;5042701;28;20185;-72
2021/05/30 07:59:35;;;;;;;3.50;3.20;;;16.80;91.30;;;;;;5036865;28;20584;-73
2021/05/30 08:02:01;;;;;;;3.80;3.50;;;16.90;90.40;;;;;;5033677;28;20406;-72
2021/05/30 08:04:26;;;;;;;4.07;3.77;;;16.90;90.00;;;;;;5033347;28;20202;-71
2021/05/30 08:06:52;;;;;;;4.07;3.77;;;17.00;92.80;;;;;;5048360;28;20178;-74
2021/05/30 08:09:17;;;;;;;3.50;3.20;;;17.30;93.00;;;;;;5054124;28;20511;-71
2021/05/30 08:11:43;;;;;;;4.00;3.60;;;17.30;89.70;;;;;;5053830;28;20624;-73
2021/05/30 08:14:09;;;;;;;3.63;3.33;;;17.50;88.70;;;;;;5053977;28;20208;-73
2021/05/30 08:16:34;;;;;;;3.67;3.37;;;17.60;88.50;;;;;;5053001;28;20210;-72
2021/05/30 08:19:00;;;;;;;3.23;3.03;;;17.70;86.90;;;;;;5057549;28;20415;-72
2021/05/30 08:21:26;;;;;;;5.30;3.60;;;17.70;85.60;;;;;;5054666;28;20173;-72
2021/05/30 08:23:51;;;;;;;3.47;3.17;;;17.70;84.10;;;;;;5053456;28;20232;-72
2021/05/30 08:26:17;;;;;;;4.13;3.73;;;17.70;84.60;;;;;;5052505;28;20699;-73
2021/05/30 08:28:42;;;;;;;3.73;3.43;;;17.80;84.80;;;;;;5053135;28;20654;-72
2021/05/30 08:31:08;;;;;;;4.57;4.20;;;17.90;84.60;;;;;;5053721;28;20256;-72
2021/05/30 08:33:34;;;;;;;3.87;3.57;;;18.00;84.00;;;;;;5053642;28;20178;-72
2021/05/30 08:36:00;;;;;;;3.80;3.50;;;18.20;82.60;;;;;;5053734;28;20202;-72
2021/05/30 08:38:26;;;;;;;3.70;3.40;;;18.20;81.20;;;;;;5053076;28;20175;-72
2021/05/30 08:40:52;;;;;;;3.70;3.30;;;18.40;81.80;;;;;;5052500;28;20550;-72
2021/05/30 08:43:18;;;;;;;3.70;3.40;;;18.40;80.20;;;;;;5053442;28;20423;-73
2021/05/30 08:45:44;;;;;;;3.93;3.60;;;18.40;79.70;;;;;;5053502;28;20511;-73
2021/05/30 08:48:10;;;;;;;3.10;2.90;;;18.50;79.30;;;;;;5052132;28;20471;-71
2021/05/30 08:50:37;;;;;;;3.53;3.33;;;18.60;79.20;;;;;;5053438;28;20409;-74
2021/05/30 08:53:03;;;;;;;3.40;3.20;;;18.60;77.90;;;;;;5054919;28;20439;-72
2021/05/30 08:55:28;;;;;;;3.97;3.10;;;18.60;77.50;;;;;;5057356;28;20439;-73
2021/05/30 08:57:54;;;;;;;3.97;3.20;;;18.60;75.60;;;;;;5056178;28;20409;-72
2021/05/30 09:00:28;;;;;;;3.00;2.80;;;18.50;75.80;;;;;;5070503;28;20193;-73
2021/05/30 09:03:13;;;;;;;3.63;3.33;;;18.50;76.30;;;;;;5079646;28;20146;-72
2021/05/30 09:05:39;;;;;;;6.70;3.20;;;18.50;75.80;;;;;;5075980;28;20856;-71
2021/05/30 09:08:05;;;;;;;3.73;3.40;;;18.60;76.00;;;;;;5058510;28;20404;-72
2021/05/30 09:10:31;;;;;;;3.10;2.80;;;18.60;75.00;;;;;;5056392;28;20750;-72
2021/05/30 09:13:16;;;;;;;3.27;3.03;;;18.70;75.50;;;;;;5056672;28;20408;-72
2021/05/30 09:16:08;;;;;;;3.70;3.40;;;18.80;74.60;;;;;;5057603;28;20193;-72
2021/05/30 09:18:34;;;;;;;3.53;3.23;;;18.80;74.10;;;;;;5057434;28;20559;-72
2021/05/30 09:21:00;;;;;;;4.17;3.10;;;18.80;73.90;;;;;;5056533;28;20444;-72
2021/05/30 09:23:39;;;;;;;3.70;3.40;;;19.00;74.60;;;;;;5056702;28;20409;-72
2021/05/30 09:26:17;;;;;;;3.13;2.93;;;19.00;73.30;;;;;;5056227;28;20201;-73
2021/05/30 09:29:08;;;;;;;3.23;3.00;;;19.20;72.80;;;;;;5056644;28;20743;-73
2021/05/30 09:31:52;;;;;;;3.20;3.00;;;19.30;72.00;;;;;;5056049;28;20430;-71
2021/05/30 09:34:26;;;;;;;4.60;3.40;;;19.50;72.00;;;;;;5056137;28;20401;-72
2021/05/30 09:36:52;;;;;;;3.40;3.10;;;19.40;69.70;;;;;;5056574;28;20466;-71
2021/05/30 09:39:38;;;;;;;3.40;3.10;;;19.40;68.00;;;;;;5055677;28;20490;-72
2021/05/30 09:42:25;;;;;;;3.63;3.27;;;19.50;68.50;;;;;;5055430;28;20735;-74
2021/05/30 09:44:55;;;;;;;3.20;3.00;;;19.60;70.30;;;;;;5054945;28;20782;-72
2021/05/30 09:47:38;;;;;;;3.50;3.20;;;19.60;69.90;;;;;;5056435;28;20162;-71
2021/05/30 09:50:07;;;;;;;4.07;3.57;;;19.60;70.20;;;;;;5056219;28;20429;-72
2021/05/30 09:52:42;;;;;;;5.13;3.83;;;19.60;70.00;;;;;;5055484;28;20412;-72
2021/05/30 09:55:14;;;;;;;4.17;3.80;;;19.50;70.40;;;;;;5055889;28;20432;-72
2021/05/30 09:57:40;;;;;;;3.50;3.20;;;19.40;70.20;;;;;;5035888;28;20409;-71
2021/05/30 10:00:19;;;;;;;4.17;3.80;;;19.40;69.50;;;;;;5034267;28;20572;-71
2021/05/30 10:02:45;;;;;;;4.17;3.87;;;19.40;70.40;;;;;;5037833;28;20278;-72
2021/05/30 10:05:11;;;;;;;4.13;3.73;;;19.20;71.90;;;;;;5055486;28;21099;-72
2021/05/30 10:07:37;;;;;;;4.10;3.80;;;19.40;73.30;;;;;;5054486;28;20170;-71
2021/05/30 10:10:03;;;;;;;4.60;4.20;;;19.40;72.60;;;;;;5055964;28;20466;-71
2021/05/30 10:12:30;;;;;;;3.93;3.63;;;19.40;72.70;;;;;;5055775;28;20821;-71
2021/05/30 10:14:55;;;;;;;4.50;4.20;;;19.40;73.20;;;;;;5055288;28;20450;-72
2021/05/30 10:17:22;;;;;;;4.17;3.87;;;19.40;73.90;;;;;;5055506;28;20405;-72
2021/05/30 10:19:49;;;;;;;5.43;4.60;;;19.40;74.30;;;;;;5054060;28;20651;-72
2021/05/30 10:22:17;;;;;;;4.90;4.50;;;19.50;75.20;;;;;;5055019;28;20458;-74
2021/05/30 10:24:44;;;;;;;4.70;4.40;;;19.60;75.40;;;;;;5055648;28;20256;-73
2021/05/30 10:27:26;;;;;;;5.03;4.47;;;19.50;74.80;;;;;;5022681;28;20510;-74
2021/05/30 10:30:07;;;;;;;4.50;4.10;;;19.50;75.20;;;;;;5044987;28;20423;-73
2021/05/30 10:32:39;;;;;;;5.20;4.57;;;19.60;73.90;;;;;;5046580;28;20896;-73
2021/05/30 10:35:11;;;;;;;4.20;3.80;;;19.60;72.00;;;;;;5045101;28;20581;-73
2021/05/30 10:37:54;;;;;;;4.00;3.70;;;19.70;72.00;;;;;;5040219;28;20612;-72
2021/05/30 10:40:22;;;;;;;4.37;3.97;;;19.90;72.30;;;;;;5037743;28;20429;-72
2021/05/30 10:43:10;;;;;;;4.97;3.97;;;20.00;69.80;;;;;;5037817;28;20530;-72
2021/05/30 10:45:42;;;;;;;4.20;3.90;;;20.10;69.90;;;;;;5042367;28;21477;-73
2021/05/30 10:48:19;;;;;;;4.33;3.93;;;20.10;70.00;;;;;;5039228;28;20434;-73
2021/05/30 10:51:16;;;;;;;4.77;3.90;;;19.90;69.20;;;;;;5040141;28;20444;-73
2021/05/30 10:53:42;;;;;;;3.93;3.63;;;19.90;70.10;;;;;;5039707;28;20425;-74
2021/05/30 10:56:21;;;;;;;4.03;3.73;;;19.80;68.80;;;;;;5036397;28;20541;-72
2021/05/30 10:59:06;;;;;;;4.40;3.67;;;19.70;68.70;;;;;;5038852;28;21238;-72
2021/05/30 11:01:42;;;;;;;4.83;4.03;;;19.60;70.30;;;;;;5045586;28;20490;-73
2021/05/30 11:04:27;;;;;;;4.40;4.00;;;19.70;70.60;;;;;;5039800;28;20464;-73
2021/05/30 11:06:53;;;;;;;4.10;3.80;;;19.70;70.10;;;;;;5033267;28;20448;-73
2021/05/30 11:09:20;;;;;;;4.80;3.87;;;19.70;69.20;;;;;;5048039;28;20519;-72
2021/05/30 11:12:06;;;;;;;4.13;3.83;;;19.70;69.00;;;;;;5048230;28;20408;-73
2021/05/30 11:14:32;;;;;;;4.80;4.20;;;19.70;69.90;;;;;;5048489;28;21423;-72
2021/05/30 11:16:58;;;;;;;4.40;4.00;;;19.70;70.60;;;;;;5043951;28;20459;-73
2021/05/30 11:19:23;;;;;;;3.90;3.50;;;19.60;69.40;;;;;;5046521;28;20619;-73
2021/05/30 11:21:50;;;;;;;4.20;3.90;;;19.60;70.00;;;;;;5047645;28;20698;-74
2021/05/30 11:24:18;;;;;;;4.13;3.83;;;19.70;71.70;;;;;;5047306;28;20218;-73
2021/05/30 11:27:01;;;;;;;3.77;3.33;;;19.80;70.30;;;;;;5049599;28;20428;-73
2021/05/30 11:29:28;;;;;;;4.07;3.70;;;19.80;69.40;;;;;;5049580;28;20452;-73
2021/05/30 11:31:54;;;;;;;3.77;3.47;;;19.90;70.10;;;;;;5049413;28;20479;-73
2021/05/30 11:34:20;;;;;;;4.73;4.13;;;20.00;69.80;;;;;;5047349;28;20590;-72
2021/05/30 11:36:47;;;;;;;5.23;4.73;;;19.90;68.60;;;;;;5065827;28;20192;-73
2021/05/30 11:39:18;;;;;;;4.50;4.10;;;20.00;69.50;;;;;;5060255;28;20499;-72
2021/05/30 11:41:51;;;;;;;4.40;3.97;;;20.10;70.20;;;;;;5048020;28;20769;-72
2021/05/30 11:44:21;;;;;;;4.10;3.70;;;20.10;69.90;;;;;;5047723;28;20693;-72
2021/05/30 11:46:58;;;;;;;3.80;3.50;;;20.00;69.50;;;;;;5048465;28;20408;-72
2021/05/30 11:49:30;;;;;;;4.37;4.03;;;19.90;69.30;;;;;;5048435;28;20785;-70
2021/05/30 11:52:01;;;;;;;4.60;4.20;;;19.90;70.60;;;;;;5045439;28;20491;-72
2021/05/30 11:54:34;;;;;;;3.70;3.40;;;19.90;69.80;;;;;;5050984;28;20423;-71
2021/05/30 11:57:05;;;;;;;4.03;3.73;;;19.90;69.20;;;;;;5051911;28;20405;-73
2021/05/30 11:59:45;;;;;;;3.90;3.60;;;19.90;70.00;;;;;;5051085;28;20774;-72
2021/05/30 12:02:28;;;;;;;4.43;3.63;;;19.90;70.40;;;;;;5051037;28;20424;-72
2021/05/30 12:05:01;;;;;;;4.10;3.80;;;19.90;70.50;;;;;;5050959;28;20871;-72
2021/05/30 12:07:27;;;;;;;5.57;3.70;;;20.00;69.40;;;;;;5051721;28;20412;-73
2021/05/30 12:09:55;;;;;;;4.53;3.97;;;20.10;69.80;;;;;;5052579;28;20412;-72
2021/05/30 12:12:24;;;;;;;4.73;3.60;;;20.10;69.70;;;;;;5053104;28;20170;-74
2021/05/30 12:14:50;;;;;;;4.00;3.70;;;20.00;70.30;;;;;;5055651;28;20435;-72
2021/05/30 12:17:15;;;;;;;4.70;3.60;;;20.00;71.00;;;;;;5054687;28;20404;-73
2021/05/30 12:19:42;;;;;;;3.37;3.07;;;20.10;71.00;;;;;;5053523;28;20190;-72
2021/05/30 12:22:08;;;;;;;4.53;4.17;;;20.20;71.60;;;;;;5053268;28;20196;-73
2021/05/30 12:24:37;;;;;;;3.87;3.57;;;20.10;69.20;;;;;;5039914;28;20469;-73
2021/05/30 12:27:03;;;;;;;3.83;3.53;;;20.20;70.20;;;;;;5033401;28;20209;-73
2021/05/30 12:29:31;;;;;;;4.83;4.43;;;20.20;69.50;;;;;;5038179;28;20429;-74
2021/05/30 12:31:56;;;;;;;3.90;3.50;;;20.20;69.50;;;;;;5040856;28;20440;-72
2021/05/30 12:34:35;;;;;;;3.67;3.40;;;20.30;69.50;;;;;;5056980;28;20417;-73
2021/05/30 12:37:00;;;;;;;3.83;3.53;;;20.30;68.60;;;;;;5081023;28;20411;-72
2021/05/30 12:39:28;;;;;;;4.07;3.67;;;20.30;69.20;;;;;;5089439;28;20412;-73
2021/05/30 12:41:57;;;;;;;3.40;3.10;;;20.40;69.70;;;;;;5088850;28;20443;-72